createdAt,value
2019-02-02T00:00:45.995Z,17.8
2019-02-02T00:01:58.172Z,17.6
2019-02-02T00:03:10.452Z,18
2019-02-02T00:05:34.821Z,17.3
2019-02-02T00:06:47.007Z,16
2019-02-02T00:07:59.142Z,17.1
2019-02-02T00:09:11.653Z,17.7
2019-02-02T00:10:23.582Z,19.6
2019-02-02T00:11:35.801Z,20.2
2019-02-02T00:12:47.979Z,17.5
2019-02-02T00:14:00.183Z,20.1
2019-02-02T00:15:12.297Z,16.9
2019-02-02T00:17:36.786Z,22.8
2019-02-02T00:18:48.961Z,22.9
2019-02-02T00:20:01.138Z,24.5
2019-02-02T00:21:13.280Z,21.5
2019-02-02T00:22:25.457Z,21.4
2019-02-02T00:23:37.742Z,18.7
2019-02-02T00:24:49.844Z,20.7
2019-02-02T00:26:02.078Z,20.9
2019-02-02T00:27:14.231Z,21.5
2019-02-02T00:29:38.684Z,24.6
2019-02-02T00:30:50.812Z,24.3
2019-02-02T00:32:03.082Z,21.3
2019-02-02T00:33:15.274Z,21
2019-02-02T00:35:39.667Z,19.7
2019-02-02T00:36:51.858Z,17.5
2019-02-02T00:38:04.160Z,20.9
2019-02-02T00:39:16.234Z,23
2019-02-02T00:41:40.564Z,21.4
2019-02-02T00:42:53.302Z,23.1
2019-02-02T00:44:05.025Z,22.1
2019-02-02T00:45:17.217Z,22.3
2019-02-02T00:46:29.406Z,18.9
2019-02-02T00:47:41.527Z,22.3
2019-02-02T00:48:53.722Z,23.7
2019-02-02T00:50:06.016Z,24.2
2019-02-02T00:51:22.631Z,25.1
2019-02-02T00:53:42.526Z,21.1
2019-02-02T00:54:54.724Z,22.6
2019-02-02T00:56:06.887Z,24.9
2019-02-02T00:57:19.165Z,23.9
2019-02-02T00:58:31.440Z,23.8
2019-02-02T00:59:43.555Z,22.8
2019-02-02T01:00:57.336Z,22.9
2019-02-02T01:02:07.861Z,21.3
2019-02-02T01:03:20.127Z,22.9
2019-02-02T01:05:44.439Z,19.7
2019-02-02T01:06:56.716Z,21.7
2019-02-02T01:08:08.834Z,20.1
2019-02-02T01:09:21.042Z,20.7
2019-02-02T01:10:33.494Z,18.1
2019-02-02T01:11:45.427Z,21
2019-02-02T01:12:57.678Z,19.8
2019-02-02T01:14:09.801Z,20.2
2019-02-02T01:15:22.006Z,18.3
2019-02-02T01:17:46.458Z,20.9
2019-02-02T01:18:58.574Z,20.3
2019-02-02T01:20:10.771Z,20.5
2019-02-02T01:21:22.966Z,19.4
2019-02-02T01:22:35.160Z,18.2
2019-02-02T01:23:47.563Z,19.8
2019-02-02T01:24:59.574Z,20.1
2019-02-02T01:26:11.952Z,18.2
2019-02-02T01:27:23.929Z,17.9
2019-02-02T01:29:48.336Z,18.2
2019-02-02T01:31:00.604Z,17.2
2019-02-02T01:32:12.810Z,16.4
2019-02-02T01:33:24.954Z,17
2019-02-02T01:34:37.110Z,17.1
2019-02-02T01:35:49.290Z,17.2
2019-02-02T01:37:01.703Z,19.9
2019-02-02T01:38:13.751Z,19.9
2019-02-02T01:39:26.824Z,20.4
2019-02-02T01:41:50.351Z,16.9
2019-02-02T01:43:02.570Z,18.2
2019-02-02T01:44:14.793Z,15.5
2019-02-02T01:45:26.864Z,18.5
2019-02-02T01:46:39.036Z,19.2
2019-02-02T01:47:51.236Z,15.2
2019-02-02T01:49:03.536Z,16.9
2019-02-02T01:50:15.701Z,19.6
2019-02-02T01:51:27.871Z,18.8
2019-02-02T01:53:52.290Z,18.7
2019-02-02T01:55:04.421Z,18.9
2019-02-02T01:56:16.661Z,22.4
2019-02-02T01:57:28.851Z,18.3
2019-02-02T01:58:40.976Z,19.1
2019-02-02T01:59:53.252Z,16.4
2019-02-02T02:01:05.472Z,17.6
2019-02-02T02:02:17.572Z,16.7
2019-02-02T02:03:29.771Z,22.6
2019-02-02T02:05:56.963Z,19.7
2019-02-02T02:07:06.444Z,23.1
2019-02-02T02:08:18.530Z,21.3
2019-02-02T02:09:30.725Z,17.9
2019-02-02T02:10:42.988Z,17.6
2019-02-02T02:11:55.220Z,24.3
2019-02-02T02:14:19.495Z,20
2019-02-02T02:15:31.693Z,22.2
2019-02-02T02:17:56.145Z,19.1
2019-02-02T02:19:08.347Z,19.6
2019-02-02T02:20:20.547Z,17.2
2019-02-02T02:21:32.747Z,21.1
2019-02-02T02:22:44.857Z,11.1
2019-02-02T02:23:57.226Z,11.2
2019-02-02T02:25:09.323Z,2.2
2019-02-02T02:27:33.713Z,4.1
2019-02-02T02:29:58.099Z,4.3
2019-02-02T02:31:10.322Z,1.7
2019-02-02T02:32:22.402Z,2.7
2019-02-02T02:33:34.694Z,3.6
2019-02-02T02:34:46.876Z,2.7
2019-02-02T02:35:59.139Z,1.8
2019-02-02T02:37:11.204Z,2
2019-02-02T02:38:23.394Z,3.7
2019-02-02T02:39:35.619Z,1.7
2019-02-02T02:41:59.978Z,1.9
2019-02-02T02:43:12.156Z,1.5
2019-02-02T02:44:24.360Z,3
2019-02-02T02:45:36.536Z,2.1
2019-02-02T02:46:48.855Z,4.3
2019-02-02T02:48:01.025Z,3.3
2019-02-02T02:49:13.203Z,3
2019-02-02T02:50:25.436Z,2.4
2019-02-02T02:51:37.585Z,3.2
2019-02-02T02:54:01.989Z,2.2
2019-02-02T02:55:14.178Z,3.3
2019-02-02T02:56:26.365Z,1.3
2019-02-02T02:57:38.662Z,4.6
2019-02-02T03:00:02.942Z,3
2019-02-02T03:01:15.081Z,3.6
2019-02-02T03:02:27.414Z,1.6
2019-02-02T03:03:42.393Z,1.9
2019-02-02T03:06:03.920Z,1.5
2019-02-02T03:07:16.193Z,2.9
2019-02-02T03:08:28.229Z,4.5
2019-02-02T03:09:40.567Z,2.7
2019-02-02T03:10:52.625Z,2.1
2019-02-02T03:12:04.907Z,3.3
2019-02-02T03:13:17.077Z,2.4
2019-02-02T03:14:29.303Z,1.8
2019-02-02T03:15:41.674Z,4.3
2019-02-02T03:18:05.878Z,2.4
2019-02-02T03:19:18.108Z,6.9
2019-02-02T03:20:30.169Z,1.7
2019-02-02T03:21:42.380Z,1.8
2019-02-02T03:22:54.593Z,1.6
2019-02-02T03:24:06.928Z,2.6
2019-02-02T03:25:19.025Z,2.7
2019-02-02T03:27:43.336Z,2.6
2019-02-02T03:30:07.721Z,4.7
2019-02-02T03:31:20.125Z,1.9
2019-02-02T03:32:32.149Z,3.3
2019-02-02T03:33:44.370Z,3
2019-02-02T03:34:56.631Z,6.2
2019-02-02T03:36:08.831Z,2.4
2019-02-02T03:37:20.885Z,3.6
2019-02-02T03:39:45.318Z,0.9
2019-02-02T03:42:09.727Z,0.9
2019-02-02T03:43:21.872Z,0.9
2019-02-02T03:44:34.059Z,1.2
2019-02-02T03:45:46.277Z,1.8
2019-02-02T03:46:58.498Z,0.5
2019-02-02T03:48:10.787Z,0.6
2019-02-02T03:49:27.256Z,0.5
2019-02-02T03:50:35.091Z,0.7
2019-02-02T03:51:47.210Z,0.5
2019-02-02T03:54:11.813Z,0.9
2019-02-02T03:55:23.836Z,0.5
2019-02-02T03:56:35.983Z,1
2019-02-02T03:57:48.272Z,0.5
2019-02-02T03:59:00.477Z,0.8
2019-02-02T04:00:12.662Z,0.6
2019-02-02T04:01:24.802Z,0.6
2019-02-02T04:02:37.084Z,0.3
2019-02-02T04:03:49.245Z,0.5
2019-02-02T04:06:13.542Z,0.3
2019-02-02T04:07:25.815Z,0.3
2019-02-02T04:08:38.083Z,0.3
2019-02-02T04:09:50.113Z,0.5
2019-02-02T04:11:02.428Z,0.3
2019-02-02T04:12:14.572Z,0.4
2019-02-02T04:13:26.710Z,0.3
2019-02-02T04:15:51.168Z,0.3
2019-02-02T04:18:15.477Z,0.2
2019-02-02T04:19:27.749Z,0.4
2019-02-02T04:20:39.871Z,0.3
2019-02-02T04:21:52.135Z,0.3
2019-02-02T04:23:04.330Z,0.3
2019-02-02T04:24:16.548Z,0.2
2019-02-02T04:25:28.657Z,0.3
2019-02-02T04:27:53.107Z,0.3
2019-02-02T04:30:17.484Z,0.2
2019-02-02T04:31:29.695Z,0.4
2019-02-02T04:32:41.944Z,0.3
2019-02-02T04:33:54.063Z,0.3
2019-02-02T04:35:06.199Z,0.3
2019-02-02T04:36:18.571Z,0.3
2019-02-02T04:37:30.590Z,0.4
2019-02-02T04:38:42.966Z,0.3
2019-02-02T04:39:55.047Z,0.3
2019-02-02T04:42:19.363Z,0.2
2019-02-02T04:43:31.743Z,0.4
2019-02-02T04:44:43.752Z,0.2
2019-02-02T04:45:56.050Z,0.3
2019-02-02T04:47:08.159Z,0.4
2019-02-02T04:48:20.414Z,0.2
2019-02-02T04:49:32.606Z,0.3
2019-02-02T04:50:44.897Z,0.3
2019-02-02T04:51:57.054Z,0.2
2019-02-02T04:54:21.375Z,0.3
2019-02-02T04:55:33.502Z,0.4
2019-02-02T04:56:45.759Z,0.3
2019-02-02T04:57:57.997Z,0.2
2019-02-02T04:59:10.175Z,0.3
2019-02-02T05:00:22.323Z,0.3
2019-02-02T05:01:34.549Z,0.4
2019-02-02T05:02:46.806Z,0.3
2019-02-02T05:03:58.854Z,0.2
2019-02-02T05:06:23.240Z,0.3
2019-02-02T05:07:35.431Z,0.4
2019-02-02T05:09:59.847Z,0.2
2019-02-02T05:11:12.094Z,0.4
2019-02-02T05:12:24.355Z,0.2
2019-02-02T05:13:36.490Z,0.4
2019-02-02T05:14:48.609Z,0.3
2019-02-02T05:16:00.805Z,0.2
2019-02-02T05:18:25.183Z,0.3
2019-02-02T05:19:37.393Z,0.4
2019-02-02T05:20:49.599Z,0.3
2019-02-02T05:22:01.776Z,0.2
2019-02-02T05:24:26.337Z,0.3
2019-02-02T05:25:38.338Z,0.3
2019-02-02T05:26:50.581Z,0.3
2019-02-02T05:28:02.818Z,0.2
2019-02-02T05:30:27.204Z,0.3
2019-02-02T05:31:39.399Z,0.4
2019-02-02T05:32:51.586Z,0.3
2019-02-02T05:34:03.699Z,0.2
2019-02-02T05:35:15.974Z,0.4
2019-02-02T05:36:28.183Z,0.3
2019-02-02T05:38:52.565Z,0.3
2019-02-02T05:40:04.822Z,0.2
2019-02-02T05:42:29.135Z,0.3
2019-02-02T05:43:41.291Z,0.3
2019-02-02T05:44:53.522Z,0.3
2019-02-02T05:46:05.727Z,0.2
2019-02-02T05:47:17.945Z,0.4
2019-02-02T05:48:30.150Z,0.3
2019-02-02T05:49:42.228Z,0.4
2019-02-02T05:50:54.410Z,0.3
2019-02-02T05:52:06.637Z,0.2
2019-02-02T05:54:31.004Z,0.3
2019-02-02T05:55:43.264Z,0.3
2019-02-02T05:56:55.395Z,0.3
2019-02-02T05:58:12.100Z,0.2
2019-02-02T05:59:21.456Z,0.3
2019-02-02T06:00:32.096Z,0.3
2019-02-02T06:01:44.165Z,0.2
2019-02-02T06:02:56.375Z,0.4
2019-02-02T06:04:08.621Z,0.2
2019-02-02T06:06:33.013Z,0.3
2019-02-02T06:07:45.144Z,0.2
2019-02-02T06:08:57.334Z,0.3
2019-02-02T06:10:09.691Z,0.2
2019-02-02T06:11:21.845Z,0.4
2019-02-02T06:12:33.996Z,0.3
2019-02-02T06:13:46.165Z,0.2
2019-02-02T06:14:58.304Z,0.4
2019-02-02T06:16:10.568Z,0.3
2019-02-02T06:18:34.959Z,0.3
2019-02-02T06:19:47.081Z,0.2
2019-02-02T06:20:59.273Z,0.3
2019-02-02T06:22:11.468Z,0.3
2019-02-02T06:23:23.854Z,0.4
2019-02-02T06:24:35.849Z,0.3
2019-02-02T06:25:48.072Z,0.2
2019-02-02T06:27:00.293Z,0.3
2019-02-02T06:28:12.435Z,0.3
2019-02-02T06:30:36.906Z,0.3
2019-02-02T06:31:49.009Z,0.2
2019-02-02T06:33:01.287Z,0.4
2019-02-02T06:34:13.474Z,0.3
2019-02-02T06:35:25.603Z,0.3
2019-02-02T06:36:37.804Z,0.4
2019-02-02T06:37:49.988Z,0.3
2019-02-02T06:39:02.184Z,0.4
2019-02-02T06:40:14.371Z,0.3
2019-02-02T06:42:38.790Z,0.4
2019-02-02T06:43:51.033Z,0.2
2019-02-02T06:45:03.163Z,0.4
2019-02-02T06:46:15.509Z,0.3
2019-02-02T06:47:27.619Z,0.3
2019-02-02T06:48:39.768Z,0.3
2019-02-02T06:51:04.118Z,0.4
2019-02-02T06:52:16.667Z,0.3
2019-02-02T06:54:40.739Z,0.3
2019-02-02T06:55:52.961Z,0.3
2019-02-02T06:57:05.081Z,0.4
2019-02-02T06:58:17.418Z,0.3
2019-02-02T06:59:29.570Z,0.3
2019-02-02T07:00:41.683Z,0.4
2019-02-02T07:01:56.898Z,0.2
2019-02-02T07:03:06.064Z,0.3
2019-02-02T07:04:18.267Z,0.3
2019-02-02T07:06:42.654Z,0.4
2019-02-02T07:07:54.871Z,0.3
2019-02-02T07:09:07.127Z,0.2
2019-02-02T07:10:19.295Z,0.3
2019-02-02T07:11:31.416Z,0.3
2019-02-02T07:12:43.612Z,0.4
2019-02-02T07:13:55.812Z,0.3
2019-02-02T07:15:08.005Z,0.3
2019-02-02T07:16:20.224Z,0.4
2019-02-02T07:18:44.630Z,0.4
2019-02-02T07:19:56.836Z,0.3
2019-02-02T07:21:08.985Z,0.3
2019-02-02T07:22:21.261Z,0.4
2019-02-02T07:23:33.542Z,0.3
2019-02-02T07:24:45.646Z,0.3
2019-02-02T07:25:57.740Z,0.3
2019-02-02T07:27:09.939Z,0.2
2019-02-02T07:28:22.138Z,0.4
2019-02-02T07:31:58.719Z,0.4
2019-02-02T07:33:10.921Z,0.3
2019-02-02T07:34:23.176Z,0.4
2019-02-02T07:35:35.303Z,0.3
2019-02-02T07:36:47.570Z,0.3
2019-02-02T07:37:59.684Z,0.3
2019-02-02T07:39:14.426Z,0.3
2019-02-02T07:40:24.197Z,0.4
2019-02-02T07:42:48.535Z,0.2
2019-02-02T07:44:00.653Z,0.4
2019-02-02T07:45:12.962Z,0.3
2019-02-02T07:46:25.060Z,0.5
2019-02-02T07:47:37.269Z,0.4
2019-02-02T07:48:49.516Z,0.3
2019-02-02T07:50:01.646Z,0.3
2019-02-02T07:51:13.830Z,0.3
2019-02-02T07:52:26.095Z,0.4
2019-02-02T07:56:02.595Z,0.4
2019-02-02T07:57:14.795Z,0.3
2019-02-02T07:58:27.073Z,0.4
2019-02-02T07:59:39.255Z,0.3
2019-02-02T08:00:51.409Z,0.3
2019-02-02T08:02:03.594Z,0.4
2019-02-02T08:03:15.909Z,0.3
2019-02-02T08:04:28.036Z,0.3
2019-02-02T08:06:52.420Z,0.2
2019-02-02T08:08:04.648Z,0.4
2019-02-02T08:09:16.940Z,0.3
2019-02-02T08:10:28.922Z,0.3
2019-02-02T08:11:41.188Z,0.4
2019-02-02T08:12:53.384Z,0.3
2019-02-02T08:14:05.599Z,0.4
2019-02-02T08:15:17.744Z,0.3
2019-02-02T08:16:29.896Z,0.2
2019-02-02T08:18:54.365Z,0.2
2019-02-02T08:20:06.472Z,0.4
2019-02-02T08:21:18.677Z,0.3
2019-02-02T08:22:30.862Z,0.2
2019-02-02T08:23:43.208Z,0.4
2019-02-02T08:24:55.241Z,0.3
2019-02-02T08:26:07.450Z,0.4
2019-02-02T08:27:19.670Z,0.3
2019-02-02T08:28:35.326Z,0.2
2019-02-02T08:30:56.398Z,0.3
2019-02-02T08:32:08.409Z,0.3
2019-02-02T08:33:20.724Z,0.3
2019-02-02T08:34:32.880Z,0.3
2019-02-02T08:35:44.995Z,0.4
2019-02-02T08:36:57.199Z,0.3
2019-02-02T08:38:09.455Z,0.4
2019-02-02T08:39:21.674Z,0.3
2019-02-02T08:40:33.777Z,0.3
2019-02-02T08:42:58.247Z,0.3
2019-02-02T08:44:10.479Z,0.4
2019-02-02T08:46:34.812Z,0.3
2019-02-02T08:47:47.016Z,0.3
2019-02-02T08:48:59.126Z,0.3
2019-02-02T08:50:11.330Z,0.4
2019-02-02T08:51:23.533Z,0.3
2019-02-02T08:52:35.731Z,0.3
2019-02-02T08:55:00.173Z,0.2
2019-02-02T08:56:12.373Z,0.4
2019-02-02T08:57:24.499Z,0.3
2019-02-02T08:58:36.809Z,0.4
2019-02-02T08:59:48.884Z,0.3
2019-02-02T09:01:01.251Z,0.3
2019-02-02T09:02:13.294Z,0.4
2019-02-02T09:03:25.543Z,0.3
2019-02-02T09:04:37.657Z,0.4
2019-02-02T09:07:02.110Z,0.3
2019-02-02T09:08:14.321Z,0.3
2019-02-02T09:09:26.425Z,0.3
2019-02-02T09:10:38.698Z,0.4
2019-02-02T09:11:50.813Z,0.3
2019-02-02T09:13:03.101Z,0.2
2019-02-02T09:14:15.296Z,0.3
2019-02-02T09:15:27.484Z,0.3
2019-02-02T09:16:43.089Z,0.4
2019-02-02T09:19:04.047Z,0.3
2019-02-02T09:20:16.235Z,0.3
2019-02-02T09:21:28.434Z,0.3
2019-02-02T09:22:40.635Z,0.4
2019-02-02T09:23:52.746Z,0.3
2019-02-02T09:25:04.954Z,0.3
2019-02-02T09:26:17.218Z,0.3
2019-02-02T09:27:29.335Z,0.3
2019-02-02T09:28:41.599Z,0.4
2019-02-02T09:31:05.918Z,0.4
2019-02-02T09:32:18.107Z,0.3
2019-02-02T09:34:42.592Z,0.4
2019-02-02T09:35:54.846Z,0.3
2019-02-02T09:37:06.967Z,0.4
2019-02-02T09:38:19.084Z,0.3
2019-02-02T09:39:31.506Z,0.2
2019-02-02T09:40:43.485Z,0.3
2019-02-02T09:43:07.868Z,0.4
2019-02-02T09:44:20.150Z,0.3
2019-02-02T09:45:32.472Z,0.3
2019-02-02T09:46:44.447Z,0.3
2019-02-02T09:47:56.644Z,0.3
2019-02-02T09:49:08.925Z,0.4
2019-02-02T09:50:21.042Z,0.3
2019-02-02T09:51:33.221Z,0.4
2019-02-02T09:52:45.440Z,0.4
2019-02-02T09:55:09.904Z,0.4
2019-02-02T09:56:22.087Z,0.3
2019-02-02T09:57:34.313Z,0.4
2019-02-02T09:58:46.476Z,0.3
2019-02-02T09:59:58.592Z,0.3
2019-02-02T10:01:10.927Z,0.3
2019-02-02T10:02:23.080Z,0.3
2019-02-02T10:03:35.260Z,0.4
2019-02-02T10:04:47.415Z,0.3
2019-02-02T10:07:11.806Z,0.3
2019-02-02T10:08:23.977Z,0.2
2019-02-02T10:09:36.275Z,0.3
2019-02-02T10:10:48.430Z,0.3
2019-02-02T10:12:00.575Z,0.4
2019-02-02T10:13:12.757Z,0.3
2019-02-02T10:14:24.948Z,0.4
2019-02-02T10:15:37.144Z,0.3
2019-02-02T10:16:49.513Z,0.3
2019-02-02T10:19:13.739Z,0.3
2019-02-02T10:20:25.935Z,0.4
2019-02-02T10:21:38.195Z,0.3
2019-02-02T10:22:50.330Z,0.3
2019-02-02T10:24:02.514Z,0.3
2019-02-02T10:25:14.708Z,0.2
2019-02-02T10:26:26.994Z,0.4
2019-02-02T10:27:39.097Z,0.3
2019-02-02T10:28:51.292Z,0.4
2019-02-02T10:31:15.746Z,0.3
2019-02-02T10:32:28.011Z,0.3
2019-02-02T10:33:40.065Z,0.2
2019-02-02T10:34:52.338Z,0.4
2019-02-02T10:36:04.548Z,0.3
2019-02-02T10:37:16.651Z,0.4
2019-02-02T10:38:28.858Z,0.3
2019-02-02T10:39:41.098Z,0.4
2019-02-02T10:40:53.268Z,0.3
2019-02-02T10:43:17.718Z,0.3
2019-02-02T10:44:30.369Z,0.3
2019-02-02T10:45:42.096Z,0.3
2019-02-02T10:46:54.226Z,0.3
2019-02-02T10:48:06.415Z,0.4
2019-02-02T10:49:18.631Z,0.3
2019-02-02T10:50:30.899Z,0.4
2019-02-02T10:51:43.028Z,0.3
2019-02-02T10:52:55.348Z,0.3
2019-02-02T10:55:19.883Z,0.3
2019-02-02T10:56:31.866Z,0.3
2019-02-02T10:57:44.060Z,0.2
2019-02-02T10:58:56.251Z,0.3
2019-02-02T11:00:08.449Z,0.3
2019-02-02T11:01:20.565Z,0.4
2019-02-02T11:02:32.895Z,0.3
2019-02-02T11:03:44.949Z,0.4
2019-02-02T11:04:57.258Z,0.3
2019-02-02T11:07:21.658Z,0.3
2019-02-02T11:08:33.743Z,0.2
2019-02-02T11:09:45.942Z,0.4
2019-02-02T11:11:01.754Z,0.2
2019-02-02T11:12:11.393Z,0.4
2019-02-02T11:13:22.518Z,0.3
2019-02-02T11:14:34.983Z,0.4
2019-02-02T11:15:46.986Z,0.3
2019-02-02T11:16:59.098Z,0.3
2019-02-02T11:19:23.553Z,0.3
2019-02-02T11:20:35.687Z,0.4
2019-02-02T11:21:47.960Z,0.3
2019-02-02T11:23:00.178Z,0.4
2019-02-02T11:24:12.299Z,0.3
2019-02-02T11:25:24.495Z,0.2
2019-02-02T11:26:36.705Z,0.3
2019-02-02T11:27:48.911Z,0.3
2019-02-02T11:29:01.140Z,0.4
2019-02-02T11:31:25.457Z,0.3
2019-02-02T11:32:37.648Z,0.3
2019-02-02T11:33:49.830Z,0.2
2019-02-02T11:35:02.036Z,0.3
2019-02-02T11:36:14.235Z,0.3
2019-02-02T11:37:26.491Z,0.3
2019-02-02T11:38:38.703Z,0.4
2019-02-02T11:39:50.813Z,0.3
2019-02-02T11:41:03.010Z,0.2
2019-02-02T11:43:27.599Z,0.3
2019-02-02T11:44:39.605Z,0.4
2019-02-02T11:45:51.820Z,0.3
2019-02-02T11:47:04.075Z,0.4
2019-02-02T11:48:16.288Z,0.3
2019-02-02T11:49:28.515Z,0.2
2019-02-02T11:50:40.613Z,0.3
2019-02-02T11:51:52.781Z,0.3
2019-02-02T11:53:05.068Z,0.3
2019-02-02T11:55:29.491Z,0.3
2019-02-02T11:56:47.031Z,0.3
2019-02-02T11:57:53.829Z,0.2
2019-02-02T11:59:05.937Z,0.3
2019-02-02T12:00:18.227Z,0.3
2019-02-02T12:01:30.337Z,0.4
2019-02-02T12:02:42.534Z,0.3
2019-02-02T12:03:54.727Z,0.4
2019-02-02T12:05:06.940Z,0.3
2019-02-02T12:07:31.399Z,0.4
2019-02-02T12:08:43.510Z,0.3
2019-02-02T12:09:55.704Z,0.4
2019-02-02T12:11:07.971Z,0.3
2019-02-02T12:12:20.157Z,0.4
2019-02-02T12:13:33.655Z,0.3
2019-02-02T12:14:44.557Z,0.2
2019-02-02T12:15:56.698Z,0.3
2019-02-02T12:17:08.942Z,0.3
2019-02-02T12:19:33.334Z,0.3
2019-02-02T12:20:45.453Z,0.3
2019-02-02T12:21:57.662Z,0.4
2019-02-02T12:23:12.110Z,0.3
2019-02-02T12:24:22.073Z,0.4
2019-02-02T12:25:34.329Z,0.3
2019-02-02T12:26:46.449Z,0.4
2019-02-02T12:27:58.647Z,0.3
2019-02-02T12:29:12.179Z,0.2
2019-02-02T12:31:35.221Z,0.3
2019-02-02T12:32:47.532Z,0.4
2019-02-02T12:35:11.896Z,0.4
2019-02-02T12:36:24.091Z,0.3
2019-02-02T12:37:36.197Z,0.3
2019-02-02T12:38:48.440Z,0.4
2019-02-02T12:40:00.672Z,0.3
2019-02-02T12:41:12.784Z,0.4
2019-02-02T12:43:37.173Z,0.3
2019-02-02T12:44:49.448Z,0.3
2019-02-02T12:46:01.679Z,0.3
2019-02-02T12:47:13.825Z,0.4
2019-02-02T12:48:25.990Z,0.3
2019-02-02T12:49:38.167Z,0.4
2019-02-02T12:50:50.370Z,0.3
2019-02-02T12:52:02.570Z,0.2
2019-02-02T12:53:14.808Z,0.4
2019-02-02T12:55:39.212Z,0.4
2019-02-02T12:56:51.334Z,0.3
2019-02-02T12:58:04.574Z,0.3
2019-02-02T12:59:15.713Z,0.3
2019-02-02T13:00:28.007Z,0.3
2019-02-02T13:01:40.125Z,0.4
2019-02-02T13:02:52.298Z,0.2
2019-02-02T13:04:04.585Z,0.4
2019-02-02T13:05:16.780Z,0.3
2019-02-02T13:07:41.085Z,0.4
2019-02-02T13:08:53.269Z,0.3
2019-02-02T13:10:05.569Z,0.4
2019-02-02T13:11:17.737Z,0.3
2019-02-02T13:12:29.856Z,0.4
2019-02-02T13:13:45.767Z,0.3
2019-02-02T13:14:55.717Z,0.3
2019-02-02T13:16:06.494Z,0.4
2019-02-02T13:17:18.640Z,0.4
2019-02-02T13:18:30.994Z,0.4
2019-02-02T13:19:43.041Z,0.3
2019-02-02T13:20:55.224Z,0.3
2019-02-02T13:22:07.441Z,0.3
2019-02-02T13:23:19.619Z,0.3
2019-02-02T13:24:31.821Z,0.4
2019-02-02T13:25:44.002Z,0.3
2019-02-02T13:26:56.327Z,0.4
2019-02-02T13:28:08.602Z,0.3
2019-02-02T13:29:20.595Z,0.3
2019-02-02T13:31:45.143Z,0.2
2019-02-02T13:32:57.263Z,0.3
2019-02-02T13:34:09.383Z,0.3
2019-02-02T13:35:21.587Z,0.4
2019-02-02T13:36:33.795Z,0.3
2019-02-02T13:37:45.986Z,0.3
2019-02-02T13:38:58.159Z,0.3
2019-02-02T13:40:10.484Z,0.3
2019-02-02T13:41:22.621Z,0.3
2019-02-02T13:43:46.938Z,0.4
2019-02-02T13:44:59.213Z,0.3
2019-02-02T13:46:11.335Z,0.2
2019-02-02T13:47:23.542Z,0.4
2019-02-02T13:48:35.720Z,0.3
2019-02-02T13:49:47.939Z,0.4
2019-02-02T13:51:00.130Z,0.3
2019-02-02T13:52:12.392Z,0.3
2019-02-02T13:53:26.921Z,0.3
2019-02-02T13:57:01.237Z,0.2
2019-02-02T13:58:13.394Z,0.4
2019-02-02T13:59:26.633Z,0.3
2019-02-02T14:00:37.817Z,0.4
2019-02-02T14:01:49.951Z,0.4
2019-02-02T14:03:02.150Z,0.3
2019-02-02T14:04:14.335Z,0.3
2019-02-02T14:05:26.463Z,0.2
2019-02-02T14:07:50.874Z,0.3
2019-02-02T14:09:03.053Z,0.4
2019-02-02T14:10:15.381Z,0.3
2019-02-02T14:11:27.443Z,0.4
2019-02-02T14:12:39.643Z,0.4
2019-02-02T14:13:51.847Z,0.2
2019-02-02T14:15:07.965Z,0.4
2019-02-02T14:16:18.257Z,0.3
2019-02-02T14:17:28.415Z,0.5
2019-02-02T14:19:52.807Z,0.3
2019-02-02T14:21:05.060Z,0.4
2019-02-02T14:22:17.286Z,0.3
2019-02-02T14:23:29.392Z,0.4
2019-02-02T14:24:41.596Z,0.3
2019-02-02T14:25:53.788Z,0.4
2019-02-02T14:27:05.984Z,0.3
2019-02-02T14:28:18.200Z,0.2
2019-02-02T14:29:30.376Z,0.4
2019-02-02T14:33:06.960Z,0.2
2019-02-02T14:34:19.149Z,0.3
2019-02-02T14:35:31.394Z,0.3
2019-02-02T14:36:43.704Z,0.3
2019-02-02T14:37:55.804Z,0.3
2019-02-02T14:39:07.950Z,0.2
2019-02-02T14:40:20.357Z,0.3
2019-02-02T14:41:32.352Z,0.3
2019-02-02T14:43:56.796Z,0.3
2019-02-02T14:45:09.279Z,0.2
2019-02-02T14:46:21.195Z,0.3
2019-02-02T14:47:33.325Z,0.3
2019-02-02T14:48:45.973Z,0.4
2019-02-02T14:49:57.814Z,0.3
2019-02-02T14:51:09.889Z,0.2
2019-02-02T14:52:22.087Z,0.3
2019-02-02T14:53:34.292Z,0.3
2019-02-02T14:55:58.750Z,0.3
2019-02-02T14:57:10.950Z,0.2
2019-02-02T14:58:23.310Z,0.3
2019-02-02T14:59:35.284Z,0.2
2019-02-02T15:00:47.546Z,0.3
2019-02-02T15:01:59.761Z,0.3
2019-02-02T15:03:11.986Z,0.4
2019-02-02T15:04:24.119Z,0.3
2019-02-02T15:05:36.261Z,0.2
2019-02-02T15:08:00.701Z,0.3
2019-02-02T15:09:12.905Z,0.4
2019-02-02T15:10:25.017Z,0.3
2019-02-02T15:11:37.303Z,0.2
2019-02-02T15:12:49.522Z,0.3
2019-02-02T15:14:01.615Z,0.3
2019-02-02T15:15:13.893Z,0.4
2019-02-02T15:16:25.999Z,0.3
2019-02-02T15:17:38.371Z,0.2
2019-02-02T15:20:02.638Z,0.3
2019-02-02T15:21:14.887Z,0.4
2019-02-02T15:22:26.987Z,0.3
2019-02-02T15:23:40.756Z,0.3
2019-02-02T15:24:51.590Z,0.4
2019-02-02T15:26:03.579Z,0.3
2019-02-02T15:27:15.892Z,0.4
2019-02-02T15:28:27.966Z,0.3
2019-02-02T15:29:40.158Z,0.3
2019-02-02T15:32:04.563Z,0.3
2019-02-02T15:33:16.928Z,0.4
2019-02-02T15:34:29.024Z,0.3
2019-02-02T15:35:41.207Z,0.4
2019-02-02T15:38:05.681Z,0.3
2019-02-02T15:39:17.884Z,0.4
2019-02-02T15:40:29.911Z,0.3
2019-02-02T15:41:42.149Z,0.3
2019-02-02T15:44:06.578Z,0.3
2019-02-02T15:45:18.689Z,0.4
2019-02-02T15:46:30.956Z,0.3
2019-02-02T15:47:43.152Z,0.2
2019-02-02T15:48:55.289Z,0.4
2019-02-02T15:50:07.475Z,0.3
2019-02-02T15:51:19.767Z,0.4
2019-02-02T15:52:31.951Z,0.3
2019-02-02T15:53:44.120Z,0.3
2019-02-02T15:56:08.535Z,0.3
2019-02-02T15:57:20.744Z,0.4
2019-02-02T15:58:32.839Z,0.3
2019-02-02T15:59:45.045Z,0.2
2019-02-02T16:00:57.255Z,0.3
2019-02-02T16:02:09.522Z,0.3
2019-02-02T16:03:21.734Z,0.5
2019-02-02T16:04:33.838Z,0.3
2019-02-02T16:05:46.078Z,0.2
2019-02-02T16:08:10.436Z,0.3
2019-02-02T16:09:22.679Z,0.4
2019-02-02T16:10:34.801Z,0.3
2019-02-02T16:11:47.008Z,0.3
2019-02-02T16:12:59.203Z,0.4
2019-02-02T16:14:11.394Z,0.3
2019-02-02T16:15:23.633Z,0.3
2019-02-02T16:16:35.932Z,0.3
2019-02-02T16:17:48.052Z,0.3
2019-02-02T16:20:12.434Z,0.3
2019-02-02T16:21:24.650Z,0.3
2019-02-02T16:22:36.787Z,0.3
2019-02-02T16:23:48.956Z,0.3
2019-02-02T16:25:01.224Z,0.4
2019-02-02T16:26:14.151Z,0.3
2019-02-02T16:27:25.552Z,0.3
2019-02-02T16:28:37.740Z,0.4
2019-02-02T16:29:49.932Z,0.3
2019-02-02T16:32:14.331Z,0.4
2019-02-02T16:33:26.524Z,0.3
2019-02-02T16:34:38.784Z,0.4
2019-02-02T16:35:50.985Z,0.3
2019-02-02T16:37:03.170Z,0.3
2019-02-02T16:38:15.440Z,0.3
2019-02-02T16:39:27.529Z,0.3
2019-02-02T16:40:39.700Z,0.4
2019-02-02T16:41:52.018Z,0.3
2019-02-02T16:44:16.334Z,0.3
2019-02-02T16:45:28.490Z,0.3
2019-02-02T16:46:40.686Z,0.4
2019-02-02T16:47:52.951Z,0.3
2019-02-02T16:49:05.057Z,0.3
2019-02-02T16:50:17.340Z,0.6
2019-02-02T16:51:29.451Z,0.4
2019-02-02T16:52:41.733Z,0.4
2019-02-02T16:53:53.841Z,0.3
2019-02-02T16:57:30.461Z,0.3
2019-02-02T16:58:42.643Z,0.3
2019-02-02T16:59:54.819Z,0.4
2019-02-02T17:01:07.111Z,0.2
2019-02-02T17:02:19.617Z,0.4
2019-02-02T17:03:31.410Z,0.3
2019-02-02T17:04:43.619Z,0.2
2019-02-02T17:05:56.082Z,0.4
2019-02-02T17:08:20.277Z,0.4
2019-02-02T17:09:32.501Z,0.3
2019-02-02T17:11:56.783Z,0.4
2019-02-02T17:13:09.285Z,0.3
2019-02-02T17:14:21.183Z,0.3
2019-02-02T17:15:33.364Z,0.3
2019-02-02T17:16:48.484Z,0.3
2019-02-02T17:17:57.754Z,0.4
2019-02-02T17:20:22.245Z,0.3
2019-02-02T17:21:34.341Z,0.3
2019-02-02T17:22:46.538Z,0.2
2019-02-02T17:23:58.802Z,0.3
2019-02-02T17:25:10.928Z,0.3
2019-02-02T17:26:23.190Z,0.2
2019-02-02T17:27:35.407Z,0.3
2019-02-02T17:28:47.535Z,0.3
2019-02-02T17:29:59.719Z,0.4
2019-02-02T17:32:24.108Z,0.3
2019-02-02T17:33:36.299Z,0.4
2019-02-02T17:34:48.618Z,0.3
2019-02-02T17:36:00.693Z,0.3
2019-02-02T17:37:13.036Z,0.3
2019-02-02T17:38:25.151Z,0.3
2019-02-02T17:39:37.312Z,0.4
2019-02-02T17:40:49.568Z,0.3
2019-02-02T17:42:01.812Z,0.2
2019-02-02T17:44:26.142Z,0.3
2019-02-02T17:45:38.286Z,0.3
2019-02-02T17:46:50.457Z,0.3
2019-02-02T17:48:02.761Z,0.3
2019-02-02T17:49:14.887Z,0.4
2019-02-02T17:50:27.193Z,0.3
2019-02-02T17:51:39.233Z,0.3
2019-02-02T17:52:51.439Z,0.4
2019-02-02T17:54:03.622Z,0.3
2019-02-02T17:56:28.091Z,0.3
2019-02-02T17:57:40.219Z,0.3
2019-02-02T17:58:52.536Z,0.4
2019-02-02T18:00:04.675Z,0.3
2019-02-02T18:01:16.805Z,0.3
2019-02-02T18:02:29.007Z,0.3
2019-02-02T18:03:41.213Z,0.2
2019-02-02T18:04:53.468Z,0.4
2019-02-02T18:06:05.600Z,0.4
2019-02-02T18:09:42.171Z,0.3
2019-02-02T18:10:54.438Z,0.3
2019-02-02T18:12:06.562Z,0.3
2019-02-02T18:13:18.845Z,0.3
2019-02-02T18:14:31.028Z,0.4
2019-02-02T18:15:43.230Z,0.3
2019-02-02T18:16:55.350Z,0.2
2019-02-02T18:18:07.623Z,0.3
2019-02-02T18:20:31.964Z,0.3
2019-02-02T18:21:44.134Z,0.3
2019-02-02T18:22:56.321Z,0.3
2019-02-02T18:24:08.517Z,0.4
2019-02-02T18:25:20.746Z,0.3
2019-02-02T18:26:32.925Z,0.3
2019-02-02T18:27:45.178Z,0.4
2019-02-02T18:28:57.301Z,0.3
2019-02-02T18:30:09.504Z,0.4
2019-02-02T18:32:33.959Z,0.3
2019-02-02T18:33:46.084Z,0.3
2019-02-02T18:34:58.290Z,0.3
2019-02-02T18:36:12.202Z,0.4
2019-02-02T18:37:22.757Z,0.3
2019-02-02T18:38:34.860Z,0.3
2019-02-02T18:39:47.225Z,0.4
2019-02-02T18:40:59.340Z,0.3
2019-02-02T18:42:11.478Z,0.3
2019-02-02T18:44:35.846Z,0.3
2019-02-02T18:45:48.113Z,0.4
2019-02-02T18:47:00.232Z,0.3
2019-02-02T18:48:12.442Z,0.3
2019-02-02T18:49:24.822Z,0.4
2019-02-02T18:50:36.896Z,0.3